Time;durP1;ratioP1;P1;durP2;ratioP2;P2;SDS_P1;SDS_P2;PMS_P1;PMS_P2;Temp;Humidity;BMP_temperature;BMP_pressure;BME280_temperature;BME280_humidity;BME280_pressure;Samples;Min_cycle;Max_cycle;Signal;HPM_P1;HPM_P2
2022/11/08 00:01:30;;;;;;;7.03;3.03;;;;;;;10.13;60.85;101322.78;4990111;28;20499;-82
2022/11/08 00:04:16;;;;;;;7.85;3.42;;;;;;;10.09;60.40;101327.19;4991586;28;20120;-81
2022/11/08 00:16:12;;;;;;;6.90;4.88;;;;;;;10.50;60.04;101337.41;4993299;28;20049;-82
2022/11/08 00:18:57;;;;;;;15.68;6.00;;;;;;;10.51;60.44;101339.03;4989509;28;20050;-82
2022/11/08 00:21:42;;;;;;;6.65;3.90;;;;;;;10.46;60.92;101339.13;4990206;28;20054;-82
2022/11/08 00:24:27;;;;;;;9.85;5.05;;;;;;;10.47;60.37;101338.00;4993471;28;20618;-83
2022/11/08 00:27:16;;;;;;;4.90;2.90;;;;;;;10.48;60.17;101342.34;5004895;28;20049;-82
2022/11/08 00:30:01;;;;;;;6.13;3.97;;;;;;;10.56;59.80;101347.09;4988839;28;20058;-82
2022/11/08 00:32:45;;;;;;;8.05;2.90;;;;;;;10.59;60.24;101336.41;4989295;28;20053;-81
2022/11/08 00:35:30;;;;;;;4.97;3.03;;;;;;;10.57;60.53;101341.34;4991488;28;20508;-82
2022/11/08 00:38:15;;;;;;;3.45;2.20;;;;;;;10.67;60.38;101343.88;4989997;28;20520;-82
2022/11/08 00:40:59;;;;;;;2.53;1.55;;;;;;;10.69;60.38;101340.88;4988577;28;20053;-82
2022/11/08 00:43:45;;;;;;;3.70;2.00;;;;;;;10.75;60.13;101336.13;4989503;28;20520;-83
2022/11/08 00:46:29;;;;;;;4.00;2.15;;;;;;;10.77;59.66;101339.38;4986898;28;20116;-82
2022/11/08 00:49:15;;;;;;;3.92;2.08;;;;;;;10.72;59.76;101345.69;4982210;28;20057;-82
2022/11/08 00:52:00;;;;;;;4.35;2.30;;;;;;;10.70;59.72;101342.47;4991851;28;20053;-82
2022/11/08 00:54:45;;;;;;;3.35;2.40;;;;;;;10.73;59.01;101341.88;4989606;28;20049;-83
2022/11/08 00:57:29;;;;;;;3.60;1.92;;;;;;;10.77;58.14;101340.16;4990821;28;20045;-82
2022/11/08 01:00:14;;;;;;;4.97;3.17;;;;;;;10.60;58.71;101331.78;4993314;28;20049;-82
2022/11/08 01:06:04;;;;;;;6.28;2.50;;;;;;;10.43;59.75;101337.78;4996476;28;20384;-81
2022/11/08 01:08:49;;;;;;;4.00;2.25;;;;;;;10.14;60.85;101331.75;4994699;28;20045;-81
2022/11/08 01:11:34;;;;;;;2.45;1.90;;;;;;;10.05;61.40;101330.81;4992188;28;20053;-83
2022/11/08 01:14:18;;;;;;;2.88;1.85;;;;;;;10.06;60.97;101327.78;4996069;28;20069;-82
2022/11/08 01:17:03;;;;;;;11.65;2.63;;;;;;;9.96;60.68;101317.06;4994713;28;20073;-83
2022/11/08 01:19:48;;;;;;;4.88;2.50;;;;;;;9.92;61.41;101318.78;4992146;28;20061;-83
2022/11/08 01:22:32;;;;;;;5.45;2.92;;;;;;;10.02;61.08;101315.09;4995815;28;20057;-83
2022/11/08 01:25:17;;;;;;;5.07;2.45;;;;;;;10.18;59.93;101319.19;4994790;28;20050;-84
2022/11/08 01:28:02;;;;;;;5.50;1.65;;;;;;;10.16;60.19;101319.50;4992531;28;20050;-83
2022/11/08 01:30:46;;;;;;;6.10;1.88;;;;;;;10.26;59.93;101321.22;4992272;28;20049;-83
2022/11/08 01:33:32;;;;;;;6.47;1.95;;;;;;;10.16;60.63;101327.66;4994444;28;20069;-83
2022/11/08 01:36:22;;;;;;;4.40;2.75;;;;;;;10.27;60.04;101322.84;4992271;28;20512;-82
2022/11/08 01:39:06;;;;;;;8.13;2.22;;;;;;;10.33;59.61;101320.84;4996182;28;20049;-83
2022/11/08 01:41:51;;;;;;;5.43;2.53;;;;;;;9.89;60.83;101311.22;4994447;28;20045;-82
2022/11/08 01:45:00;;;;;;;3.42;1.83;;;;;;;9.73;61.41;101307.94;4992582;28;20516;-83
2022/11/08 01:47:45;;;;;;;5.40;2.38;;;;;;;9.78;61.54;101305.16;4995926;28;20049;-83
2022/11/08 01:50:30;;;;;;;3.55;1.90;;;;;;;9.72;61.71;101311.75;5005935;28;20053;-83
2022/11/08 01:53:15;;;;;;;7.68;1.95;;;;;;;9.90;61.23;101301.97;4977907;28;20414;-83
2022/11/08 01:56:00;;;;;;;3.05;1.75;;;;;;;9.95;61.18;101301.09;4976360;28;20057;-82
2022/11/08 01:58:48;;;;;;;2.72;1.52;;;;;;;9.84;60.44;101298.53;4974520;28;20417;-83
2022/11/08 02:01:33;;;;;;;5.95;2.80;;;;;;;9.91;60.30;101298.13;4974890;28;20065;-83
2022/11/08 02:04:18;;;;;;;2.47;1.30;;;;;;;10.00;59.47;101301.81;4995730;28;20053;-83
2022/11/08 02:07:06;;;;;;;3.63;2.50;;;;;;;9.68;60.21;101290.91;4993892;28;20049;-84
2022/11/08 02:09:51;;;;;;;7.70;2.58;;;;;;;9.71;60.11;101290.31;4991923;28;20425;-84
2022/11/08 02:12:36;;;;;;;4.05;2.08;;;;;;;9.55;61.02;101288.94;4995262;28;20548;-83
2022/11/08 02:15:23;;;;;;;3.45;1.83;;;;;;;9.74;60.48;101287.03;4974372;28;20054;-83
2022/11/08 02:18:09;;;;;;;3.88;2.13;;;;;;;9.57;60.83;101286.72;4972911;28;20050;-83
2022/11/08 02:21:12;;;;;;;5.90;2.55;;;;;;;9.79;60.02;101285.03;4982211;28;20049;-83
2022/11/08 02:24:05;;;;;;;3.88;2.10;;;;;;;9.93;59.46;101284.28;4991951;28;20057;-83
2022/11/08 02:26:52;;;;;;;4.55;2.38;;;;;;;9.60;60.09;101291.59;4991431;28;20058;-83
2022/11/08 02:29:36;;;;;;;5.57;2.42;;;;;;;9.14;61.70;101278.66;4994740;28;20060;-82
2022/11/08 02:32:22;;;;;;;3.15;2.03;;;;;;;9.36;61.22;101284.31;4991039;28;20061;-83
2022/11/08 02:35:16;;;;;;;5.80;2.20;;;;;;;9.06;62.15;101286.63;4990846;28;20057;-82
2022/11/08 02:38:00;;;;;;;4.05;1.70;;;;;;;9.37;61.54;101291.34;4991682;28;20037;-83
2022/11/08 02:40:48;;;;;;;5.80;2.30;;;;;;;9.55;60.85;101288.94;4990740;28;20409;-83
2022/11/08 02:43:33;;;;;;;3.97;2.35;;;;;;;9.67;60.26;101281.16;4990059;28;20045;-84
2022/11/08 02:46:17;;;;;;;8.07;2.47;;;;;;;9.71;60.39;101272.13;4991462;28;20057;-83
2022/11/08 02:49:02;;;;;;;3.83;1.98;;;;;;;9.79;60.93;101271.47;4991167;28;20045;-83
2022/11/08 02:51:47;;;;;;;9.20;2.60;;;;;;;9.93;60.15;101274.22;4985982;28;20423;-83
2022/11/08 02:54:31;;;;;;;3.03;1.80;;;;;;;9.93;59.24;101266.06;4994364;28;20049;-83
2022/11/08 02:57:16;;;;;;;3.88;1.80;;;;;;;9.80;60.14;101269.56;4990896;28;20050;-82
2022/11/08 03:00:00;;;;;;;4.95;2.28;;;;;;;9.87;59.73;101261.81;4991097;28;20049;-83
2022/11/08 03:02:50;;;;;;;17.80;2.13;;;;;;;9.80;60.19;101258.69;4994412;28;20460;-83
2022/11/08 03:05:34;;;;;;;4.55;2.10;;;;;;;10.00;59.44;101255.63;4992574;28;20050;-83
2022/11/08 03:08:19;;;;;;;3.35;1.48;;;;;;;9.88;59.12;101261.53;4990412;28;20712;-83
2022/11/08 03:11:04;;;;;;;5.30;2.10;;;;;;;9.77;60.21;101259.25;4994404;28;20049;-82
2022/11/08 03:13:49;;;;;;;2.53;1.90;;;;;;;9.95;59.35;101252.19;4992385;28;20421;-83
2022/11/08 03:16:34;;;;;;;2.35;1.70;;;;;;;9.68;59.96;101247.47;4990481;28;20053;-82
2022/11/08 03:19:18;;;;;;;3.53;2.15;;;;;;;9.66;60.11;101255.09;5007912;28;20045;-82
2022/11/08 03:22:03;;;;;;;4.53;2.20;;;;;;;9.49;59.73;101262.97;4992718;28;20511;-82
2022/11/08 03:24:47;;;;;;;3.95;2.00;;;;;;;9.31;59.95;101254.53;4990914;28;20413;-82
2022/11/08 03:27:32;;;;;;;4.65;1.88;;;;;;;9.28;60.22;101263.28;4990572;28;20543;-82
2022/11/08 03:30:17;;;;;;;2.60;1.42;;;;;;;9.29;60.60;101258.66;4984389;28;20053;-82
2022/11/08 03:33:03;;;;;;;;;;;;;;;9.28;61.62;101271.41;4991037;28;20053;-82
2022/11/08 03:35:48;;;;;;;4.55;1.98;;;;;;;9.19;61.69;101262.31;4994632;28;19914;-82
2022/11/08 03:38:33;;;;;;;5.47;2.38;;;;;;;9.14;61.86;101254.25;4990330;28;20049;-82
2022/11/08 03:41:17;;;;;;;4.13;1.67;;;;;;;9.17;61.60;101260.97;4989916;28;20057;-82
2022/11/08 03:44:02;;;;;;;4.85;2.42;;;;;;;9.11;62.01;101264.84;4995013;28;20686;-83
2022/11/08 03:46:47;;;;;;;2.90;2.05;;;;;;;9.14;62.01;101265.09;5007071;28;20053;-82
2022/11/08 03:49:32;;;;;;;3.20;2.15;;;;;;;9.19;62.02;101270.47;4990594;28;20045;-82
2022/11/08 03:52:17;;;;;;;7.65;3.10;;;;;;;9.12;62.17;101264.56;4975367;28;20117;-83
2022/11/08 03:55:01;;;;;;;6.95;2.72;;;;;;;9.05;62.94;101268.72;4970949;28;20069;-83
2022/11/08 03:57:48;;;;;;;3.45;2.17;;;;;;;9.00;63.32;101272.31;4972137;28;20046;-83
2022/11/08 04:00:32;;;;;;;4.25;2.95;;;;;;;8.93;63.29;101261.03;4973987;28;20049;-83
2022/11/08 04:03:17;;;;;;;3.60;2.35;;;;;;;8.94;63.40;101263.44;5006923;28;20050;-82
2022/11/08 04:06:02;;;;;;;4.53;2.60;;;;;;;9.04;63.31;101265.19;4990367;28;20053;-83
2022/11/08 04:08:47;;;;;;;7.43;3.17;;;;;;;9.20;62.77;101265.81;4989593;28;20052;-82
2022/11/08 04:23:50;;;;;;;;;;;;;;;9.34;62.15;101267.53;4993649;28;20054;-82
2022/11/08 04:26:35;;;;;;;4.63;2.80;;;;;;;9.16;61.40;101249.31;4992169;28;19933;-81
2022/11/08 04:29:20;;;;;;;4.03;2.40;;;;;;;8.50;63.69;101250.13;4990219;28;20405;-82
2022/11/08 04:32:05;;;;;;;3.75;1.65;;;;;;;8.13;65.53;101249.94;4993839;28;20053;-83
2022/11/08 04:34:49;;;;;;;6.13;2.97;;;;;;;8.23;65.20;101247.13;4996007;28;20059;-83
2022/11/08 04:37:34;;;;;;;3.08;2.13;;;;;;;7.93;65.84;101252.84;4993615;28;20061;-83
2022/11/08 04:40:18;;;;;;;5.00;1.95;;;;;;;7.91;66.38;101241.50;4994065;28;20524;-82
2022/11/08 04:43:03;;;;;;;5.95;2.58;;;;;;;8.00;66.85;101247.91;4992426;28;20049;-82
2022/11/08 04:45:47;;;;;;;5.30;2.15;;;;;;;8.39;65.61;101254.03;4993248;28;20049;-83
2022/11/08 04:48:32;;;;;;;4.82;2.80;;;;;;;8.61;64.16;101253.53;4998036;28;20523;-82
2022/11/08 04:51:20;;;;;;;3.17;1.85;;;;;;;8.82;63.38;101252.22;4996149;28;20049;-82
2022/11/08 04:54:06;;;;;;;3.30;2.42;;;;;;;9.03;64.36;101247.34;4991839;28;20049;-83
2022/11/08 04:56:51;;;;;;;3.60;2.35;;;;;;;9.06;62.54;101257.59;4998295;28;20049;-82
2022/11/08 04:59:35;;;;;;;7.30;2.05;;;;;;;8.99;61.97;101249.81;4982978;28;20054;-82
2022/11/08 05:02:20;;;;;;;5.60;2.28;;;;;;;8.61;63.32;101250.03;4987543;28;20585;-84
2022/11/08 05:05:06;;;;;;;3.67;1.67;;;;;;;8.63;63.57;101245.13;4989928;28;20421;-82
2022/11/08 05:07:52;;;;;;;5.25;2.63;;;;;;;8.89;63.03;101265.41;4991832;28;20049;-83
2022/11/08 05:10:37;;;;;;;4.00;3.05;;;;;;;8.69;63.39;101266.44;4992429;28;20057;-83
2022/11/08 05:13:21;;;;;;;5.25;2.83;;;;;;;8.71;63.77;101260.75;4991850;28;20045;-82
2022/11/08 05:16:13;;;;;;;2.92;1.80;;;;;;;8.77;63.42;101262.31;4994127;28;20471;-82
2022/11/08 05:18:59;;;;;;;2.88;1.98;;;;;;;8.68;62.81;101261.34;4983520;28;20041;-83
2022/11/08 05:24:48;;;;;;;5.72;3.17;;;;;;;8.61;63.69;101260.88;4995057;28;20042;-83
2022/11/08 05:27:34;;;;;;;8.25;2.50;;;;;;;8.75;62.72;101262.59;4999347;28;20049;-82
2022/11/08 05:30:19;;;;;;;4.43;2.65;;;;;;;8.83;63.08;101261.16;4991868;28;20041;-82
2022/11/08 05:33:04;;;;;;;6.97;2.45;;;;;;;8.83;62.75;101264.69;4991785;28;20054;-82
2022/11/08 05:35:48;;;;;;;7.25;2.53;;;;;;;8.62;63.52;101255.16;5047730;23;20415;-81
2022/11/08 05:38:33;;;;;;;4.07;2.65;;;;;;;8.70;64.00;101259.13;5075794;28;20043;-79
2022/11/08 05:41:20;;;;;;;6.75;2.63;;;;;;;8.64;63.30;101258.38;5073618;28;20043;-81
2022/11/08 05:44:05;;;;;;;11.05;3.05;;;;;;;8.52;64.90;101250.66;5073374;28;20078;-79
2022/11/08 05:46:50;;;;;;;2.33;1.75;;;;;;;8.64;65.92;101263.00;5059953;28;20056;-78
2022/11/08 05:49:34;;;;;;;8.40;2.30;;;;;;;8.47;64.65;101256.16;5069795;28;20047;-79
2022/11/08 05:52:19;;;;;;;6.03;3.17;;;;;;;8.47;65.81;101249.91;5058267;28;20052;-79
2022/11/08 05:55:05;;;;;;;5.53;2.60;;;;;;;8.78;64.64;101259.31;5054897;28;20056;-78
2022/11/08 05:57:49;;;;;;;9.98;4.80;;;;;;;8.79;64.20;101254.66;5063436;28;20035;-80
2022/11/08 06:00:35;;;;;;;5.78;2.75;;;;;;;8.41;64.32;101268.13;5072125;28;20051;-79
2022/11/08 06:03:19;;;;;;;9.68;3.20;;;;;;;8.49;63.97;101270.19;5070678;28;20068;-80
2022/11/08 06:06:08;;;;;;;7.80;2.28;;;;;;;8.49;64.43;101267.50;5063374;28;20064;-77
2022/11/08 06:08:53;;;;;;;8.75;3.20;;;;;;;8.52;64.21;101272.34;5058090;28;20051;-79
2022/11/08 06:11:38;;;;;;;5.35;2.63;;;;;;;8.47;64.39;101274.31;5062464;28;20063;-78
2022/11/08 06:14:23;;;;;;;14.30;6.15;;;;;;;8.54;64.32;101274.75;5056082;28;20056;-77
2022/11/08 06:17:08;;;;;;;17.13;5.63;;;;;;;8.37;64.98;101272.50;5055952;28;20056;-78
2022/11/08 06:19:52;;;;;;;9.32;4.95;;;;;;;8.55;64.28;101281.78;5060946;28;20507;-77
2022/11/08 06:22:37;;;;;;;7.72;4.00;;;;;;;8.55;63.87;101282.59;5067448;28;20052;-78
2022/11/08 06:25:22;;;;;;;7.10;3.95;;;;;;;8.58;64.07;101286.66;5073887;28;20312;-78
2022/11/08 06:28:07;;;;;;;6.15;3.65;;;;;;;8.54;64.32;101288.31;5079350;28;20063;-79
2022/11/08 06:30:53;;;;;;;8.40;4.35;;;;;;;8.52;65.34;101294.03;5077982;28;20039;-79
2022/11/08 06:33:37;;;;;;;4.40;2.65;;;;;;;8.29;65.05;101302.06;5074366;28;20055;-79
2022/11/08 06:36:22;;;;;;;6.57;3.28;;;;;;;7.99;66.32;101300.44;5066940;28;20044;-80
2022/11/08 06:39:07;;;;;;;7.00;2.65;;;;;;;8.19;66.18;101300.28;5071161;28;20048;-80
2022/11/08 06:41:52;;;;;;;4.57;2.58;;;;;;;8.27;66.21;101302.38;5077849;28;20047;-80
2022/11/08 06:44:37;;;;;;;9.02;3.03;;;;;;;8.10;67.02;101299.28;5079338;28;20059;-79
2022/11/08 06:47:21;;;;;;;9.82;3.40;;;;;;;8.15;67.13;101302.75;5074766;28;20064;-78
2022/11/08 06:50:06;;;;;;;9.15;3.30;;;;;;;8.21;67.20;101300.00;5072724;28;20234;-78
2022/11/08 06:53:05;;;;;;;11.23;3.85;;;;;;;8.49;66.15;101310.84;5070728;28;20051;-78
2022/11/08 06:55:49;;;;;;;26.90;11.43;;;;;;;8.58;65.46;101311.84;5074018;28;20055;-78
2022/11/08 06:58:34;;;;;;;11.70;4.90;;;;;;;8.52;66.23;101312.19;5079044;28;20556;-79
2022/11/08 07:01:19;;;;;;;4.57;2.75;;;;;;;8.52;66.24;101309.50;5069632;28;20055;-79
2022/11/08 07:04:03;;;;;;;10.63;3.38;;;;;;;8.31;68.13;101308.88;5072308;28;20048;-78
2022/11/08 07:06:48;;;;;;;14.30;4.70;;;;;;;8.45;67.86;101315.25;5074176;28;20067;-77
2022/11/08 07:09:33;;;;;;;10.00;3.87;;;;;;;8.46;68.39;101316.84;5069728;28;20052;-79
2022/11/08 07:12:17;;;;;;;5.57;3.50;;;;;;;8.39;68.77;101327.22;5068763;28;20285;-78
2022/11/08 07:15:03;;;;;;;13.85;5.93;;;;;;;8.78;67.98;101323.59;5074848;28;20055;-80
2022/11/08 07:17:48;;;;;;;14.68;3.90;;;;;;;8.66;68.22;101325.88;5078482;28;20522;-78
2022/11/08 07:20:33;;;;;;;7.63;2.35;;;;;;;8.95;67.96;101323.91;5077325;28;20063;-78
2022/11/08 07:23:18;;;;;;;9.32;3.53;;;;;;;8.42;69.82;101326.66;5074742;28;20055;-79
2022/11/08 07:26:04;;;;;;;7.40;2.80;;;;;;;8.74;69.76;101328.75;5072082;28;20056;-80
2022/11/08 07:28:49;;;;;;;7.75;3.92;;;;;;;9.08;67.99;101325.94;5085275;28;20055;-79
2022/11/08 07:31:33;;;;;;;14.95;4.32;;;;;;;9.27;68.02;101325.97;5072219;28;20047;-79
2022/11/08 07:34:18;;;;;;;10.80;2.58;;;;;;;9.06;68.16;101325.41;5054550;28;20052;-78
2022/11/08 07:37:03;;;;;;;10.00;4.30;;;;;;;9.30;67.78;101339.75;5073485;28;20059;-79
2022/11/08 07:39:47;;;;;;;9.63;4.68;;;;;;;9.49;67.26;101345.22;5073333;28;20407;-81
2022/11/08 07:42:36;;;;;;;5.47;3.17;;;;;;;9.48;68.60;101340.06;5072478;28;20052;-77
2022/11/08 07:45:26;;;;;;;8.45;4.60;;;;;;;9.23;70.10;101336.59;5071542;28;20119;-79
2022/11/08 07:48:12;;;;;;;4.35;3.00;;;;;;;9.47;69.32;101341.16;5073445;28;20416;-82
2022/11/08 07:50:57;;;;;;;6.53;3.33;;;;;;;9.79;68.24;101335.84;5071928;28;20059;-81
2022/11/08 07:53:43;;;;;;;6.32;4.28;;;;;;;10.17;67.29;101331.16;5075585;28;20048;-80
2022/11/08 07:56:28;;;;;;;7.43;3.15;;;;;;;10.24;67.32;101339.75;5072933;28;20047;-79
2022/11/08 07:59:13;;;;;;;4.97;2.75;;;;;;;10.36;67.23;101348.25;5070834;28;20411;-82
2022/11/08 08:01:58;;;;;;;7.22;3.58;;;;;;;10.43;67.18;101342.41;5075399;28;20047;-82
2022/11/08 08:04:43;;;;;;;14.93;2.95;;;;;;;10.49;66.71;101335.78;5073936;28;20047;-79
2022/11/08 08:07:27;;;;;;;13.90;3.08;;;;;;;10.73;66.25;101345.41;5071561;28;20063;-79
2022/11/08 08:10:12;;;;;;;8.23;3.17;;;;;;;10.67;66.44;101341.16;5075951;28;20712;-80
2022/11/08 08:12:57;;;;;;;10.80;3.17;;;;;;;10.60;65.86;101335.31;5073479;28;20060;-76
2022/11/08 08:15:42;;;;;;;12.63;3.20;;;;;;;10.58;68.24;101342.16;5073170;28;20043;-76
2022/11/08 08:18:28;;;;;;;8.57;2.90;;;;;;;10.68;67.34;101339.25;5079049;28;20052;-77
2022/11/08 08:21:13;;;;;;;10.68;3.20;;;;;;;10.97;66.81;101342.47;5075617;28;20047;-78
2022/11/08 08:23:58;;;;;;;10.80;3.80;;;;;;;11.15;65.30;101336.16;5068162;28;20072;-77
2022/11/08 08:26:43;;;;;;;5.93;3.17;;;;;;;11.27;64.00;101334.81;5072023;28;20396;-78
2022/11/08 08:29:28;;;;;;;6.65;3.50;;;;;;;11.45;64.06;101348.31;5070647;28;20130;-77
2022/11/08 08:32:13;;;;;;;15.30;4.13;;;;;;;11.47;63.49;101340.66;5072282;28;20043;-78
2022/11/08 08:34:58;;;;;;;10.57;4.47;;;;;;;11.83;62.91;101335.22;5071631;28;20051;-79
2022/11/08 08:37:42;;;;;;;9.98;3.38;;;;;;;12.02;61.90;101343.22;5074613;28;20043;-75
2022/11/08 08:40:28;;;;;;;9.15;3.67;;;;;;;11.94;60.64;101350.22;5071778;28;20055;-76
2022/11/08 08:43:12;;;;;;;9.80;4.18;;;;;;;12.04;60.01;101356.56;5076050;28;20048;-78
2022/11/08 08:46:01;;;;;;;9.10;4.13;;;;;;;12.21;59.09;101364.84;5074132;28;20106;-77
2022/11/08 08:48:46;;;;;;;12.90;3.83;;;;;;;12.24;59.76;101359.56;5072607;28;20051;-78
2022/11/08 08:51:30;;;;;;;15.68;4.47;;;;;;;12.03;56.51;101357.66;5076368;28;20055;-78
2022/11/08 08:54:15;;;;;;;11.43;4.65;;;;;;;12.16;57.38;101352.16;5071405;28;20423;-78
2022/11/08 08:56:59;;;;;;;8.80;3.80;;;;;;;12.23;56.57;101357.19;5071212;28;20059;-77
2022/11/08 08:59:44;;;;;;;10.02;3.38;;;;;;;11.88;59.07;101359.66;5070900;28;20059;-79
2022/11/08 09:02:29;;;;;;;6.75;3.33;;;;;;;12.10;57.34;101360.75;5074725;28;20411;-79
2022/11/08 09:05:15;;;;;;;7.22;3.90;;;;;;;11.84;55.62;101355.91;5071488;28;20047;-78
2022/11/08 09:08:00;;;;;;;15.00;2.88;;;;;;;12.11;55.45;101351.47;5070882;28;20518;-76
2022/11/08 09:10:46;;;;;;;;;;;;;;;12.10;56.63;101356.09;5075108;28;20059;-76
2022/11/08 09:13:31;;;;;;;8.80;4.03;;;;;;;12.21;56.49;101357.47;5071179;28;19912;-77
2022/11/08 09:16:15;;;;;;;4.75;2.85;;;;;;;12.27;55.61;101347.25;5070750;28;20047;-78
2022/11/08 09:19:00;;;;;;;5.88;3.05;;;;;;;12.40;55.63;101349.09;5073014;28;20523;-76
2022/11/08 09:21:45;;;;;;;9.18;4.57;;;;;;;12.53;54.80;101353.69;5076823;28;20052;-77
2022/11/08 09:24:29;;;;;;;7.82;3.88;;;;;;;12.49;55.87;101349.97;5074764;28;20051;-78
2022/11/08 09:27:14;;;;;;;9.68;4.65;;;;;;;12.74;56.16;101349.28;5074902;28;20407;-77
2022/11/08 09:29:59;;;;;;;8.40;4.10;;;;;;;12.63;55.53;101349.88;5076910;28;20075;-77
2022/11/08 09:32:43;;;;;;;8.43;3.45;;;;;;;12.68;55.83;101361.47;5075083;28;20051;-78
2022/11/08 09:35:28;;;;;;;9.95;3.80;;;;;;;12.76;55.17;101357.97;5078522;28;20056;-77
2022/11/08 09:38:13;;;;;;;6.68;3.42;;;;;;;13.03;55.08;101354.22;5074747;28;20043;-76
2022/11/08 09:40:57;;;;;;;12.50;5.50;;;;;;;13.39;54.46;101355.97;5074804;28;20514;-78
2022/11/08 09:44:06;;;;;;;9.38;4.55;;;;;;;13.30;54.60;101347.75;5079063;28;20051;-76
2022/11/08 09:46:56;;;;;;;9.05;4.93;;;;;;;13.51;53.62;101353.44;5074441;28;20051;-77
2022/11/08 09:49:45;;;;;;;10.75;5.22;;;;;;;13.51;52.89;101353.44;5074998;28;20526;-79
2022/11/08 09:52:32;;;;;;;11.32;5.53;;;;;;;13.50;52.70;101357.28;5073871;28;20048;-77
2022/11/08 09:55:27;;;;;;;12.85;6.07;;;;;;;13.18;52.64;101355.75;5075794;28;20047;-76
2022/11/08 09:58:18;;;;;;;15.38;4.72;;;;;;;13.22;52.40;101346.59;5078999;28;20526;-76
2022/11/08 10:01:03;;;;;;;9.77;5.60;;;;;;;13.43;51.98;101346.81;5077009;28;20515;-78
2022/11/08 10:03:53;;;;;;;8.35;4.20;;;;;;;13.10;53.21;101343.66;5074845;28;20059;-79
2022/11/08 10:06:41;;;;;;;16.42;5.13;;;;;;;12.66;55.18;101344.59;5074650;28;20044;-77
2022/11/08 10:09:32;;;;;;;12.90;5.82;;;;;;;13.06;54.87;101352.78;5076766;28;20063;-77
2022/11/08 10:12:41;;;;;;;13.55;5.97;;;;;;;13.75;53.51;101342.84;5074113;28;20051;-77
2022/11/08 10:15:52;;;;;;;12.52;6.07;;;;;;;13.91;52.12;101341.25;5077176;28;20051;-76
2022/11/08 10:19:10;;;;;;;31.48;5.97;;;;;;;14.09;51.70;101347.47;5073988;28;20118;-77
2022/11/08 10:22:03;;;;;;;12.32;5.82;;;;;;;13.93;52.04;101338.16;5073869;28;20041;-75
2022/11/08 10:24:59;;;;;;;12.73;5.30;;;;;;;14.10;51.61;101333.50;5073816;28;20047;-76
2022/11/08 10:27:44;;;;;;;11.32;5.60;;;;;;;14.36;51.17;101330.75;5073526;28;20047;-79
2022/11/08 10:30:35;;;;;;;6.80;3.55;;;;;;;14.33;50.95;101328.63;5075261;28;20088;-76
2022/11/08 10:33:48;;;;;;;9.45;4.82;;;;;;;14.74;50.51;101322.56;5073389;28;20538;-78
2022/11/08 10:36:38;;;;;;;15.45;5.07;;;;;;;14.82;50.08;101315.47;5072683;28;20059;-76
2022/11/08 10:39:27;;;;;;;12.35;4.47;;;;;;;15.13;48.82;101315.97;5073711;28;20043;-78
2022/11/08 10:42:19;;;;;;;13.38;5.25;;;;;;;14.93;49.42;101314.75;5077322;28;20067;-79
2022/11/08 10:45:04;;;;;;;9.85;5.13;;;;;;;15.37;48.03;101316.13;5075418;28;20047;-79
2022/11/08 10:47:51;;;;;;;;;;;;;;;15.77;47.66;101312.94;5073774;28;20427;-78
2022/11/08 10:50:44;;;;;;;13.68;4.70;;;;;;;16.03;46.78;101309.97;5073251;28;19916;-77
2022/11/08 10:53:30;;;;;;;10.65;4.70;;;;;;;15.94;46.68;101299.09;5074747;28;20044;-78
2022/11/08 10:56:15;;;;;;;11.05;3.97;;;;;;;15.31;48.85;101302.94;5072631;28;20052;-80
2022/11/08 10:59:00;;;;;;;16.80;5.70;;;;;;;15.44;48.34;101306.56;5076834;28;20047;-79
2022/11/08 11:01:49;;;;;;;10.57;5.05;;;;;;;16.01;47.45;101302.06;5075226;28;20565;-77
2022/11/08 11:04:34;;;;;;;11.73;5.32;;;;;;;16.30;47.10;101303.09;5078492;28;20063;-76
2022/11/08 11:07:34;;;;;;;12.40;4.05;;;;;;;16.43;46.31;101296.47;5073894;28;20047;-78
2022/11/08 11:10:28;;;;;;;12.48;5.07;;;;;;;16.56;46.58;101292.59;5072983;28;20052;-79
2022/11/08 11:13:18;;;;;;;13.37;4.70;;;;;;;16.43;46.75;101297.28;5072669;28;20047;-77
2022/11/08 11:16:03;;;;;;;10.07;4.80;;;;;;;16.19;47.14;101289.81;5070830;28;20063;-79
2022/11/08 11:18:51;;;;;;;7.93;2.75;;;;;;;16.22;47.75;101285.56;5064672;28;20052;-79
2022/11/08 11:21:38;;;;;;;16.63;5.00;;;;;;;15.94;48.46;101277.16;5070836;28;20048;-80
2022/11/08 11:24:24;;;;;;;9.73;4.28;;;;;;;15.51;50.17;101274.78;5058637;28;20051;-81
2022/11/08 11:27:20;;;;;;;9.50;4.32;;;;;;;15.76;49.40;101283.91;5066042;28;20052;-80
2022/11/08 11:30:27;;;;;;;13.38;4.28;;;;;;;15.84;49.70;101274.81;5060578;28;20041;-80
2022/11/08 11:33:23;;;;;;;9.15;4.05;;;;;;;15.89;50.16;101262.84;5069373;28;20043;-80
2022/11/08 11:36:14;;;;;;;7.55;3.67;;;;;;;15.79;50.27;101255.84;5064689;28;20130;-80
2022/11/08 11:39:03;;;;;;;9.05;3.88;;;;;;;15.69;50.89;101261.72;5062529;28;20040;-80
2022/11/08 11:41:58;;;;;;;8.38;3.75;;;;;;;15.90;50.08;101250.75;5066733;28;20051;-79
2022/11/08 11:45:07;;;;;;;7.93;3.77;;;;;;;15.92;50.63;101245.69;5072214;28;20051;-82
2022/11/08 11:47:55;;;;;;;12.13;3.53;;;;;;;16.24;49.93;101242.13;5070702;28;20278;-79
2022/11/08 11:50:44;;;;;;;6.03;3.17;;;;;;;16.65;48.83;101241.19;5077264;28;20056;-79
2022/11/08 11:53:37;;;;;;;11.70;4.28;;;;;;;16.73;49.28;101234.75;5073324;28;20052;-80
2022/11/08 11:56:42;;;;;;;10.88;3.40;;;;;;;17.00;47.34;101238.75;5070565;28;20051;-80
2022/11/08 11:59:41;;;;;;;7.88;3.67;;;;;;;16.90;43.47;101234.53;5069321;28;20043;-80
2022/11/08 12:02:26;;;;;;;5.32;2.03;;;;;;;16.94;43.39;101238.19;5072347;28;20047;-79
2022/11/08 12:05:27;;;;;;;4.20;1.92;;;;;;;16.26;45.88;101235.16;5071769;28;20051;-77
2022/11/08 12:08:21;;;;;;;14.38;3.95;;;;;;;15.85;46.11;101227.03;5078057;28;20051;-79
2022/11/08 12:11:15;;;;;;;35.40;10.88;;;;;;;15.65;47.09;101222.41;5071958;28;20048;-79
2022/11/08 12:14:14;;;;;;;18.27;5.32;;;;;;;15.49;47.70;101226.88;5064269;28;20037;-78
2022/11/08 12:17:18;;;;;;;20.08;5.10;;;;;;;15.50;49.06;101220.25;5063631;28;20043;-80
2022/11/08 12:20:17;;;;;;;14.20;3.95;;;;;;;15.52;48.41;101213.34;5064742;28;20060;-79
2022/11/08 12:23:36;;;;;;;5.82;2.00;;;;;;;15.52;49.45;101216.06;5070864;28;20039;-79
2022/11/08 12:26:29;;;;;;;12.75;3.60;;;;;;;15.48;49.42;101211.56;5072648;28;20443;-79
2022/11/08 12:29:38;;;;;;;16.00;6.63;;;;;;;15.55;49.18;101209.91;5072414;28;20044;-79
2022/11/08 12:32:49;;;;;;;9.20;3.90;;;;;;;15.56;48.56;101197.00;5067180;28;20048;-77
2022/11/08 12:35:52;;;;;;;7.35;2.72;;;;;;;15.58;49.36;101208.44;5070473;28;20048;-78
2022/11/08 12:39:06;;;;;;;4.80;2.15;;;;;;;15.59;49.48;101196.34;5057803;28;20044;-80
2022/11/08 12:42:21;;;;;;;4.90;2.58;;;;;;;15.59;48.63;101191.66;5050928;28;20534;-77
2022/11/08 12:45:24;;;;;;;15.40;5.55;;;;;;;15.78;48.30;101183.72;5055705;28;20064;-78
2022/11/08 12:48:47;;;;;;;12.43;3.30;;;;;;;15.89;48.03;101189.59;5057445;28;20043;-78
2022/11/08 12:51:41;;;;;;;9.70;2.60;;;;;;;15.98;47.16;101190.28;5074413;28;20047;-78
2022/11/08 12:54:42;;;;;;;8.57;3.92;;;;;;;16.03;48.43;101184.59;5073768;28;20052;-78
2022/11/08 12:57:29;;;;;;;4.57;2.28;;;;;;;16.03;48.47;101186.53;5079759;28;20051;-78
2022/11/08 13:00:17;;;;;;;8.02;3.10;;;;;;;16.17;44.20;101179.56;5077887;28;20049;-78
2022/11/08 13:03:19;;;;;;;6.07;2.88;;;;;;;16.19;46.38;101182.78;5074981;28;20060;-78
2022/11/08 13:06:23;;;;;;;9.68;3.90;;;;;;;16.16;45.34;101180.72;5071627;28;20051;-78
2022/11/08 13:09:22;;;;;;;14.38;3.58;;;;;;;16.24;46.05;101171.59;5063911;28;20044;-79
2022/11/08 13:12:22;;;;;;;8.40;2.45;;;;;;;16.26;47.19;101177.50;5069176;28;20040;-80
2022/11/08 13:15:20;;;;;;;10.13;4.38;;;;;;;16.24;44.98;101179.81;5073330;28;20048;-79
2022/11/08 13:18:05;;;;;;;9.75;3.28;;;;;;;16.19;46.08;101179.25;5065712;28;20044;-80
2022/11/08 13:20:50;;;;;;;3.95;2.20;;;;;;;16.24;44.92;101181.75;5064099;28;20510;-80
2022/11/08 13:23:35;;;;;;;;;;;;;;;16.24;45.64;101181.75;5081671;28;20047;-80
2022/11/08 13:26:24;;;;;;;5.57;3.15;;;;;;;16.14;45.51;101188.50;5072908;28;19916;-79
2022/11/08 13:29:15;;;;;;;6.82;2.97;;;;;;;16.15;46.00;101181.06;5080314;28;20044;-79
2022/11/08 13:32:08;;;;;;;9.77;2.35;;;;;;;16.13;46.90;101186.09;5074526;28;20364;-80
2022/11/08 13:35:14;;;;;;;5.70;2.38;;;;;;;16.08;45.65;101189.84;5076952;28;20111;-79